createdAt,value
2023-05-18T00:01:54.253Z,100219.63
2023-05-18T00:04:57.034Z,100219.87
2023-05-18T00:08:00.568Z,100216.28
2023-05-18T00:11:04.474Z,100208.56
2023-05-18T00:14:08.291Z,100214.31
2023-05-18T00:17:11.312Z,100216.09
2023-05-18T00:20:13.779Z,100216.47
2023-05-18T00:23:16.826Z,100220.34
2023-05-18T00:26:19.371Z,100218.94
2023-05-18T00:29:22.147Z,100220.19
2023-05-18T00:32:24.585Z,100223.03
2023-05-18T00:35:27.674Z,100224.97
2023-05-18T00:38:30.179Z,100219.97
2023-05-18T00:41:33.707Z,100222.16
2023-05-18T00:44:36.116Z,100215.28
2023-05-18T00:47:44.306Z,100224.09
2023-05-18T00:50:46.811Z,100227.22
2023-05-18T00:53:51.161Z,100215.09
2023-05-18T00:56:53.704Z,100216.03
2023-05-18T00:59:57.900Z,100221.81
2023-05-18T01:03:00.582Z,100219.91
2023-05-18T01:06:05.808Z,100219.63
2023-05-18T01:09:11.870Z,100220.69
2023-05-18T01:12:36.996Z,100226.78
2023-05-18T01:15:40.062Z,100217.53
2023-05-18T01:18:58.987Z,100218.22
2023-05-18T01:22:18.023Z,100217.91
2023-05-18T01:25:50.325Z,100217.91
2023-05-18T01:28:54.550Z,100217.91
2023-05-18T01:31:59.324Z,100213.53
2023-05-18T01:35:03.772Z,100219.47
2023-05-18T01:38:06.513Z,100226.84
2023-05-18T01:41:18.166Z,100234.69
2023-05-18T01:44:26.807Z,100226.47
2023-05-18T01:47:31.961Z,100239.53
2023-05-18T01:50:43.415Z,100225.06
2023-05-18T01:53:57.686Z,100223.97
2023-05-18T01:57:01.379Z,100227.53
2023-05-18T02:00:08.052Z,100227.31
2023-05-18T02:03:18.395Z,100230.63
2023-05-18T02:06:21.387Z,100227.88
2023-05-18T02:09:23.920Z,100232.97
2023-05-18T02:12:29.954Z,100232.28
2023-05-18T02:15:32.633Z,100234.50
2023-05-18T02:18:36.466Z,100232.72
2023-05-18T02:21:39.580Z,100244.25
2023-05-18T02:24:42.273Z,100248.28
2023-05-18T02:27:44.823Z,100249.25
2023-05-18T02:30:50.273Z,100249.91
2023-05-18T02:33:53.364Z,100250.50
2023-05-18T02:37:05.440Z,100248.00
2023-05-18T02:40:13.709Z,100253.25
2023-05-18T02:43:16.621Z,100260.50
2023-05-18T02:46:19.099Z,100259.19
2023-05-18T02:49:21.921Z,100259.56
2023-05-18T02:52:24.498Z,100266.72
2023-05-18T02:55:29.017Z,100258.72
2023-05-18T02:58:35.910Z,100268.34
2023-05-18T03:01:41.115Z,100271.94
2023-05-18T03:04:47.571Z,100271.69
2023-05-18T03:07:54.434Z,100268.00
2023-05-18T03:10:57.924Z,100275.25
2023-05-18T03:14:00.608Z,100273.59
2023-05-18T03:17:05.975Z,100277.03
2023-05-18T03:20:14.582Z,100282.41
2023-05-18T03:23:17.198Z,100288.69
2023-05-18T03:26:20.046Z,100282.41
2023-05-18T03:29:22.909Z,100282.41
2023-05-18T03:32:28.472Z,100296.19
2023-05-18T03:35:31.309Z,100292.88
2023-05-18T03:38:34.390Z,100299.50
2023-05-18T03:41:40.012Z,100308.81
2023-05-18T03:44:43.419Z,100305.94
2023-05-18T03:47:46.391Z,100305.69
2023-05-18T03:50:49.312Z,100317.09
2023-05-18T03:53:52.364Z,100320.44
2023-05-18T03:56:56.454Z,100322.91
2023-05-18T03:59:59.120Z,100330.62
2023-05-18T04:03:03.375Z,100339.41
2023-05-18T04:06:10.424Z,100333.97
2023-05-18T04:09:17.343Z,100340.25
2023-05-18T04:12:20.063Z,100341.09
2023-05-18T04:15:22.879Z,100340.56
2023-05-18T04:18:30.460Z,100341.28
2023-05-18T04:21:36.374Z,100351.09
2023-05-18T04:24:51.336Z,100347.69
2023-05-18T04:27:55.235Z,100348.13
2023-05-18T04:30:58.870Z,100342.88
2023-05-18T04:34:01.343Z,100358.06
2023-05-18T04:37:05.967Z,100359.47
2023-05-18T04:40:14.220Z,100366.09
2023-05-18T04:43:18.823Z,100364.88
2023-05-18T04:46:24.293Z,100367.25
2023-05-18T04:49:28.317Z,100372.22
2023-05-18T04:52:30.933Z,100381.62
2023-05-18T04:55:37.356Z,100385.75
2023-05-18T04:58:41.650Z,100386.75
2023-05-18T05:01:44.964Z,100385.28
2023-05-18T05:04:47.427Z,100396.06
2023-05-18T05:07:51.795Z,100391.97
2023-05-18T05:10:54.378Z,100392.63
2023-05-18T05:13:57.379Z,100396.53
2023-05-18T05:16:59.823Z,100393.69
2023-05-18T05:20:03.452Z,100398.25
2023-05-18T05:23:07.362Z,100398.53
2023-05-18T05:26:14.242Z,100400.88
2023-05-18T05:29:16.934Z,100406.03
2023-05-18T05:32:20.051Z,100412.53
2023-05-18T05:35:22.991Z,100407.72
2023-05-18T05:38:26.790Z,100411.97
2023-05-18T05:41:32.455Z,100423.47
2023-05-18T05:44:37.112Z,100421.50
2023-05-18T05:47:42.592Z,100432.56
2023-05-18T05:50:45.983Z,100433.97
2023-05-18T05:53:49.552Z,100431.62
2023-05-18T05:56:52.889Z,100438.66
2023-05-18T05:59:55.375Z,100441.56
2023-05-18T06:02:58.981Z,100451.06
2023-05-18T06:06:03.516Z,100451.63
2023-05-18T06:09:06.316Z,100461.25
2023-05-18T06:12:09.666Z,100466.22
2023-05-18T06:15:12.472Z,100464.28
2023-05-18T06:18:15.458Z,100472.88
2023-05-18T06:21:18.034Z,100472.88
2023-05-18T06:24:21.102Z,100472.06
2023-05-18T06:27:24.283Z,100475.13
2023-05-18T06:30:27.719Z,100479.97
2023-05-18T06:33:31.168Z,100471.03
2023-05-18T06:36:34.370Z,100477.13
2023-05-18T06:39:39.109Z,100472.28
2023-05-18T06:42:44.377Z,100483.47
2023-05-18T06:45:56.518Z,100485.00
2023-05-18T06:49:02.944Z,100486.09
2023-05-18T06:52:06.911Z,100482.91
2023-05-18T06:55:09.849Z,100487.63
2023-05-18T06:58:12.423Z,100489.16
2023-05-18T07:01:17.950Z,100495.91
2023-05-18T07:04:20.748Z,100501.16
2023-05-18T07:07:23.448Z,100500.38
2023-05-18T07:10:26.237Z,100506.47
2023-05-18T07:13:29.050Z,100505.50
2023-05-18T07:16:35.662Z,100509.78
2023-05-18T07:19:38.771Z,100516.38
2023-05-18T07:22:41.463Z,100512.25
2023-05-18T07:25:46.410Z,100513.06
2023-05-18T07:28:51.695Z,100508.84
2023-05-18T07:31:54.953Z,100513.31
2023-05-18T07:34:57.524Z,100523.75
2023-05-18T07:38:00.213Z,100523.56
2023-05-18T07:41:02.840Z,100527.88
2023-05-18T07:44:05.765Z,100531.56
2023-05-18T07:47:08.457Z,100531.53
2023-05-18T07:50:11.631Z,100529.56
2023-05-18T07:53:14.097Z,100530.31
2023-05-18T07:56:17.070Z,100541.59
2023-05-18T07:59:28.027Z,100544.38
2023-05-18T08:02:33.537Z,100550.59
2023-05-18T08:05:36.977Z,100554.06
2023-05-18T08:08:39.438Z,100560.62
2023-05-18T08:11:43.379Z,100560.25
2023-05-18T08:14:46.143Z,100556.44
2023-05-18T08:17:49.102Z,100559.53
2023-05-18T08:20:54.164Z,100559.94
2023-05-18T08:23:57.372Z,100558.47
2023-05-18T08:26:59.850Z,100570.50
2023-05-18T08:30:02.934Z,100567.94
2023-05-18T08:33:05.527Z,100570.72
2023-05-18T08:36:09.110Z,100568.59
2023-05-18T08:39:12.582Z,100568.47
2023-05-18T08:42:45.658Z,100566.69
2023-05-18T08:46:06.708Z,100566.56
2023-05-18T08:49:11.058Z,100572.81
2023-05-18T08:52:18.331Z,100570.97
2023-05-18T08:55:22.945Z,100571.53
2023-05-18T08:58:52.665Z,100577.31
2023-05-18T09:01:55.730Z,100577.75
2023-05-18T09:04:58.739Z,100576.91
2023-05-18T09:08:03.984Z,100572.50
2023-05-18T09:11:06.999Z,100577.62
2023-05-18T09:14:09.833Z,100571.38
2023-05-18T09:17:12.481Z,100573.25
2023-05-18T09:20:17.007Z,100576.63
2023-05-18T09:23:24.366Z,100579.44
2023-05-18T09:26:27.767Z,100581.22
2023-05-18T09:29:32.287Z,100585.22
2023-05-18T09:32:37.174Z,100583.22
2023-05-18T09:35:39.954Z,100577.56
2023-05-18T09:38:46.923Z,100586.81
2023-05-18T09:41:57.336Z,100584.97
2023-05-18T09:45:00.222Z,100585.78
2023-05-18T09:48:02.604Z,100587.16
2023-05-18T09:51:07.087Z,100592.13
2023-05-18T09:54:10.460Z,100601.53
2023-05-18T09:57:14.146Z,100597.06
2023-05-18T10:00:19.343Z,100595.59
2023-05-18T10:03:24.267Z,100594.94
2023-05-18T10:06:27.713Z,100599.28
2023-05-18T10:09:31.608Z,100603.78
2023-05-18T10:12:34.440Z,100607.72
2023-05-18T10:15:38.108Z,100605.56
2023-05-18T10:18:41.065Z,100612.53
2023-05-18T10:21:44.892Z,100607.06
2023-05-18T10:24:54.236Z,100609.38
2023-05-18T10:28:00.175Z,100611.19
2023-05-18T10:31:04.597Z,100605.59
2023-05-18T10:34:09.419Z,100610.37
2023-05-18T10:37:13.811Z,100607.38
2023-05-18T10:40:17.900Z,100608.72
2023-05-18T10:43:27.271Z,100609.06
2023-05-18T10:46:31.251Z,100612.19
2023-05-18T10:49:37.447Z,100612.69
2023-05-18T10:52:53.299Z,100607.22
2023-05-18T10:55:56.201Z,100607.22
2023-05-18T10:58:59.282Z,100607.22
2023-05-18T11:02:03.976Z,100604.06
2023-05-18T11:05:11.050Z,100598.44
2023-05-18T11:08:15.216Z,100600.94
2023-05-18T11:11:19.421Z,100600.94
2023-05-18T11:14:32.699Z,100596.47
2023-05-18T11:17:35.582Z,100604.34
2023-05-18T11:20:38.143Z,100610.16
2023-05-18T11:23:40.794Z,100609.38
2023-05-18T11:26:48.285Z,100616.31
2023-05-18T11:29:57.804Z,100610.03
2023-05-18T11:33:31.149Z,100617.50
2023-05-18T11:36:46.827Z,100621.47
2023-05-18T11:39:59.763Z,100615.66
2023-05-18T11:43:03.990Z,100621.28
2023-05-18T11:46:18.805Z,100618.78
2023-05-18T11:49:25.693Z,100616.97
2023-05-18T11:52:28.854Z,100613.34
2023-05-18T11:55:39.166Z,100617.31
2023-05-18T11:58:41.883Z,100623.28
2023-05-18T12:01:45.358Z,100618.94
2023-05-18T12:04:51.219Z,100618.16
2023-05-18T12:07:54.565Z,100619.78
2023-05-18T12:10:58.429Z,100619.28
2023-05-18T12:14:01.438Z,100624.59
2023-05-18T12:17:05.546Z,100621.94
2023-05-18T12:20:13.329Z,100615.25
2023-05-18T12:23:16.256Z,100622.34
2023-05-18T12:26:20.704Z,100619.75
2023-05-18T12:29:23.534Z,100616.56
2023-05-18T12:32:27.206Z,100608.94
2023-05-18T12:35:31.580Z,100612.56
2023-05-18T12:38:34.481Z,100613.91
2023-05-18T12:41:37.234Z,100618.78
2023-05-18T12:44:39.898Z,100615.84
2023-05-18T12:47:43.316Z,100619.84
2023-05-18T12:50:47.080Z,100618.53
2023-05-18T12:53:50.801Z,100619.53
2023-05-18T12:57:02.099Z,100625.50
2023-05-18T13:00:10.645Z,100623.63
2023-05-18T13:03:16.807Z,100627.34
2023-05-18T13:06:19.949Z,100630.00
2023-05-18T13:09:22.416Z,100630.84
2023-05-18T13:12:46.759Z,100632.41
2023-05-18T13:15:52.289Z,100631.06
2023-05-18T13:19:04.392Z,100621.91
2023-05-18T13:22:07.068Z,100626.78
2023-05-18T13:25:10.118Z,100621.59
2023-05-18T13:28:15.095Z,100636.84
2023-05-18T13:31:19.158Z,100626.41
2023-05-18T13:34:21.677Z,100620.72
2023-05-18T13:37:24.798Z,100632.50
2023-05-18T13:40:29.973Z,100619.78
2023-05-18T13:43:33.291Z,100628.41
2023-05-18T13:46:38.363Z,100626.41
2023-05-18T13:49:41.493Z,100632.31
2023-05-18T13:52:44.423Z,100636.47
2023-05-18T13:55:47.180Z,100629.44
2023-05-18T13:58:50.310Z,100634.44
2023-05-18T14:01:55.026Z,100637.75
2023-05-18T14:04:59.857Z,100644.25
2023-05-18T14:08:02.537Z,100647.59
2023-05-18T14:11:05.355Z,100643.66
2023-05-18T14:14:07.792Z,100641.13
2023-05-18T14:17:13.999Z,100643.78
2023-05-18T14:20:16.610Z,100647.75
2023-05-18T14:23:19.368Z,100653.53
2023-05-18T14:26:22.414Z,100646.09
2023-05-18T14:29:25.666Z,100641.28
2023-05-18T14:32:31.223Z,100644.78
2023-05-18T14:35:34.674Z,100645.44
2023-05-18T14:38:37.217Z,100641.78
2023-05-18T14:41:39.894Z,100637.16
2023-05-18T14:44:44.649Z,100640.16
2023-05-18T14:47:48.177Z,100626.91
2023-05-18T14:50:50.774Z,100638.31
2023-05-18T14:53:53.493Z,100633.22
2023-05-18T14:56:56.129Z,100633.81
2023-05-18T15:00:00.529Z,100635.78
2023-05-18T15:03:03.653Z,100639.66
2023-05-18T15:06:06.683Z,100635.66
2023-05-18T15:09:10.032Z,100638.31
2023-05-18T15:12:12.697Z,100639.44
2023-05-18T15:15:15.528Z,100630.88
2023-05-18T15:18:18.415Z,100635.19
2023-05-18T15:21:29.777Z,100635.03
2023-05-18T15:24:32.480Z,100640.69
2023-05-18T15:27:35.468Z,100642.97
2023-05-18T15:30:38.381Z,100636.69
2023-05-18T15:33:44.196Z,100640.56
2023-05-18T15:36:47.417Z,100642.03
2023-05-18T15:39:49.914Z,100647.63
2023-05-18T15:42:52.762Z,100639.16
2023-05-18T15:45:55.339Z,100644.41
2023-05-18T15:48:58.725Z,100643.00
2023-05-18T15:52:01.120Z,100633.25
2023-05-18T15:55:04.106Z,100639.44
2023-05-18T15:58:06.448Z,100631.41
2023-05-18T16:01:09.205Z,100640.84
2023-05-18T16:04:11.959Z,100635.94
2023-05-18T16:07:23.834Z,100643.69
2023-05-18T16:10:26.564Z,100638.41
2023-05-18T16:13:29.040Z,100641.25
2023-05-18T16:16:31.883Z,100639.31
2023-05-18T16:19:34.886Z,100637.06
2023-05-18T16:22:39.908Z,100640.00
2023-05-18T16:25:42.388Z,100646.97
2023-05-18T16:28:45.192Z,100652.47
2023-05-18T16:31:47.617Z,100650.41
2023-05-18T16:34:52.933Z,100649.94
2023-05-18T16:37:55.280Z,100661.72
2023-05-18T16:40:58.118Z,100655.53
2023-05-18T16:44:00.754Z,100650.09
2023-05-18T16:47:08.113Z,100657.72
2023-05-18T16:50:10.948Z,100658.00
2023-05-18T16:53:13.871Z,100664.25
2023-05-18T16:56:16.592Z,100663.28
2023-05-18T16:59:20.430Z,100658.31
2023-05-18T17:02:24.487Z,100660.22
2023-05-18T17:05:37.991Z,100658.72
2023-05-18T17:08:40.549Z,100670.19
2023-05-18T17:11:43.325Z,100669.09
2023-05-18T17:14:46.241Z,100679.28
2023-05-18T17:17:54.779Z,100674.31
2023-05-18T17:21:00.369Z,100679.00
2023-05-18T17:24:03.175Z,100682.84
2023-05-18T17:27:05.834Z,100687.38
2023-05-18T17:30:11.225Z,100687.78
2023-05-18T17:33:13.825Z,100683.06
2023-05-18T17:36:18.314Z,100692.44
2023-05-18T17:39:20.792Z,100689.38
2023-05-18T17:42:23.494Z,100689.88
2023-05-18T17:45:28.814Z,100691.63
2023-05-18T17:48:31.550Z,100699.75
2023-05-18T17:51:34.038Z,100691.44
2023-05-18T17:54:36.901Z,100699.66
2023-05-18T17:57:45.643Z,100694.09
2023-05-18T18:00:51.219Z,100701.66
2023-05-18T18:03:54.376Z,100702.31
2023-05-18T18:06:58.690Z,100704.56
2023-05-18T18:10:01.419Z,100718.47
2023-05-18T18:13:03.816Z,100726.94
2023-05-18T18:16:06.573Z,100729.00
2023-05-18T18:19:10.363Z,100735.72
2023-05-18T18:22:13.042Z,100742.41
2023-05-18T18:25:15.418Z,100733.38
2023-05-18T18:28:18.723Z,100739.13
2023-05-18T18:31:21.454Z,100746.53
2023-05-18T18:34:30.126Z,100753.19
2023-05-18T18:37:33.912Z,100745.81
2023-05-18T18:40:36.710Z,100749.78
2023-05-18T18:43:39.903Z,100752.25
2023-05-18T18:46:42.602Z,100761.44
2023-05-18T18:49:48.283Z,100763.69
2023-05-18T18:52:51.019Z,100761.31
2023-05-18T18:55:54.263Z,100763.44
2023-05-18T18:58:57.291Z,100756.09
2023-05-18T19:02:03.839Z,100765.13
2023-05-18T19:05:11.131Z,100764.41
2023-05-18T19:08:13.855Z,100763.94
2023-05-18T19:11:16.534Z,100770.25
2023-05-18T19:14:21.655Z,100762.37
2023-05-18T19:17:26.767Z,100762.75
2023-05-18T19:20:29.699Z,100760.47
2023-05-18T19:23:32.506Z,100775.56
2023-05-18T19:26:34.972Z,100767.47
2023-05-18T19:29:37.963Z,100778.44
2023-05-18T19:32:40.819Z,100775.56
2023-05-18T19:35:43.568Z,100773.63
2023-05-18T19:38:46.874Z,100775.87
2023-05-18T19:41:49.675Z,100781.78
2023-05-18T19:44:52.074Z,100786.63
2023-05-18T19:47:54.953Z,100791.72
2023-05-18T19:50:57.430Z,100783.63
2023-05-18T19:54:00.251Z,100781.56
2023-05-18T19:57:02.748Z,100782.94
2023-05-18T20:00:07.184Z,100783.41
2023-05-18T20:03:16.579Z,100782.69
2023-05-18T20:06:20.117Z,100782.03
2023-05-18T20:09:23.162Z,100775.97
2023-05-18T20:12:28.383Z,100786.63
2023-05-18T20:15:32.595Z,100787.25
2023-05-18T20:18:35.456Z,100786.63
2023-05-18T20:21:37.918Z,100788.75
2023-05-18T20:24:44.621Z,100793.06
2023-05-18T20:27:47.266Z,100788.03
2023-05-18T20:30:50.096Z,100792.44
2023-05-18T20:33:56.979Z,100783.97
2023-05-18T20:36:59.730Z,100789.44
2023-05-18T20:40:07.296Z,100793.19
2023-05-18T20:43:11.619Z,100801.94
2023-05-18T20:46:14.072Z,100800.53
2023-05-18T20:49:16.913Z,100806.59
2023-05-18T20:52:19.407Z,100805.97
2023-05-18T20:55:29.091Z,100803.56
2023-05-18T20:58:34.232Z,100814.84
2023-05-18T21:01:39.421Z,100819.44
2023-05-18T21:04:45.447Z,100812.91
2023-05-18T21:07:51.690Z,100810.37
2023-05-18T21:10:54.879Z,100812.97
2023-05-18T21:13:57.512Z,100819.38
2023-05-18T21:17:02.130Z,100812.78
2023-05-18T21:20:05.339Z,100819.09
2023-05-18T21:23:07.850Z,100816.87
2023-05-18T21:26:10.516Z,100813.75
2023-05-18T21:29:14.862Z,100805.19
2023-05-18T21:32:17.743Z,100807.09
2023-05-18T21:35:20.592Z,100807.28
2023-05-18T21:38:23.696Z,100805.84
2023-05-18T21:41:26.153Z,100807.09
2023-05-18T21:44:28.950Z,100816.69
2023-05-18T21:47:31.384Z,100810.66
2023-05-18T21:50:36.981Z,100812.63
2023-05-18T21:53:39.660Z,100820.47
2023-05-18T21:56:42.597Z,100826.41
2023-05-18T21:59:45.099Z,100820.47
2023-05-18T22:02:48.020Z,100827.75
2023-05-18T22:05:53.145Z,100833.19
2023-05-18T22:08:55.648Z,100833.37
2023-05-18T22:11:58.894Z,100838.91
2023-05-18T22:15:03.952Z,100828.81
2023-05-18T22:18:07.103Z,100822.75
2023-05-18T22:21:09.566Z,100828.38
2023-05-18T22:24:12.627Z,100826.81
2023-05-18T22:27:15.199Z,100825.84
2023-05-18T22:30:18.017Z,100820.84
2023-05-18T22:33:21.356Z,100819.81
2023-05-18T22:36:24.668Z,100822.12
2023-05-18T22:39:26.975Z,100825.47
2023-05-18T22:42:29.945Z,100820.97
2023-05-18T22:45:35.754Z,100829.44
2023-05-18T22:48:39.654Z,100824.00
2023-05-18T22:51:42.131Z,100820.16
2023-05-18T22:54:47.164Z,100815.47
2023-05-18T22:57:49.671Z,100818.59
2023-05-18T23:00:52.908Z,100819.19
2023-05-18T23:03:58.433Z,100818.47
2023-05-18T23:07:01.935Z,100821.91
2023-05-18T23:10:05.883Z,100824.63
2023-05-18T23:13:08.646Z,100826.41
2023-05-18T23:16:11.432Z,100828.19
2023-05-18T23:19:14.101Z,100832.56
2023-05-18T23:22:17.079Z,100836.22
2023-05-18T23:25:19.886Z,100832.78
2023-05-18T23:28:22.549Z,100840.59
2023-05-18T23:31:26.108Z,100829.31
2023-05-18T23:34:29.012Z,100829.22
2023-05-18T23:37:33.071Z,100829.03
2023-05-18T23:40:36.082Z,100822.97
2023-05-18T23:43:39.297Z,100828.06
2023-05-18T23:46:42.341Z,100830.69
2023-05-18T23:49:45.532Z,100836.75
2023-05-18T23:52:52.179Z,100830.06
2023-05-18T23:55:58.058Z,100824.41
2023-05-18T23:59:01.743Z,100831.09
